sensor_id;sensor_type;location;lat;lon;timestamp;pressure;altitude;pressure_sealevel;temperature;humidity
48386;BME280;34644;47.964;7.982;2023-10-13T00:05:42;96818.41;;;20.70;50.72
48386;BME280;34644;47.964;7.982;2023-10-13T00:12:42;96813.06;;;20.70;50.72
48386;BME280;34644;47.964;7.982;2023-10-13T00:19:49;96811.47;;;20.69;50.59
48386;BME280;34644;47.964;7.982;2023-10-13T00:26:52;96810.66;;;20.68;50.47
48386;BME280;34644;47.964;7.982;2023-10-13T00:33:54;96802.91;;;20.67;50.34
48386;BME280;34644;47.964;7.982;2023-10-13T00:40:55;96790.34;;;20.67;50.20
48386;BME280;34644;47.964;7.982;2023-10-13T00:48:03;96797.56;;;20.67;50.83
48386;BME280;34644;47.964;7.982;2023-10-13T00:55:10;96785.28;;;20.66;50.34
48386;BME280;34644;47.964;7.982;2023-10-13T01:02:11;96784.47;;;20.65;50.25
48386;BME280;34644;47.964;7.982;2023-10-13T01:09:30;96782.91;;;20.64;50.19
48386;BME280;34644;47.964;7.982;2023-10-13T01:16:40;96780.22;;;20.64;50.30
48386;BME280;34644;47.964;7.982;2023-10-13T01:23:40;96784.75;;;20.64;50.15
48386;BME280;34644;47.964;7.982;2023-10-13T01:30:43;96774.34;;;20.62;50.41
48386;BME280;34644;47.964;7.982;2023-10-13T01:37:45;96781.28;;;20.63;50.08
48386;BME280;34644;47.964;7.982;2023-10-13T01:44:45;96768.19;;;20.61;50.16
48386;BME280;34644;47.964;7.982;2023-10-13T01:51:45;96769.78;;;20.63;50.14
48386;BME280;34644;47.964;7.982;2023-10-13T01:58:47;96765.00;;;20.59;50.05
48386;BME280;34644;47.964;7.982;2023-10-13T02:05:48;96761.25;;;20.60;50.29
48386;BME280;34644;47.964;7.982;2023-10-13T02:12:49;96757.75;;;20.60;50.01
48386;BME280;34644;47.964;7.982;2023-10-13T02:19:55;96753.50;;;20.59;50.25
48386;BME280;34644;47.964;7.982;2023-10-13T02:26:56;96740.41;;;20.57;49.99
48386;BME280;34644;47.964;7.982;2023-10-13T02:34:02;96742.00;;;20.58;50.05
48386;BME280;34644;47.964;7.982;2023-10-13T02:41:12;96736.16;;;20.56;50.10
48386;BME280;34644;47.964;7.982;2023-10-13T02:48:19;96720.06;;;20.56;50.03
48386;BME280;34644;47.964;7.982;2023-10-13T02:55:21;96710.44;;;20.55;49.98
48386;BME280;34644;47.964;7.982;2023-10-13T03:02:27;96706.19;;;20.54;50.15
48386;BME280;34644;47.964;7.982;2023-10-13T03:09:29;96694.69;;;20.54;49.96
48386;BME280;34644;47.964;7.982;2023-10-13T03:16:29;96687.47;;;20.54;49.98
48386;BME280;34644;47.964;7.982;2023-10-13T03:23:30;96690.13;;;20.54;49.81
48386;BME280;34644;47.964;7.982;2023-10-13T03:30:45;96675.16;;;20.53;49.73
48386;BME280;34644;47.964;7.982;2023-10-13T03:37:47;96680.50;;;20.53;50.09
48386;BME280;34644;47.964;7.982;2023-10-13T03:44:47;96672.00;;;20.51;50.41
48386;BME280;34644;47.964;7.982;2023-10-13T03:51:48;96670.41;;;20.50;50.32
48386;BME280;34644;47.964;7.982;2023-10-13T03:58:48;96662.38;;;20.50;50.30
48386;BME280;34644;47.964;7.982;2023-10-13T04:05:49;96652.72;;;20.49;50.10
48386;BME280;34644;47.964;7.982;2023-10-13T04:13:21;96648.97;;;20.50;50.08
48386;BME280;34644;47.964;7.982;2023-10-13T04:20:41;96639.34;;;20.49;50.25
48386;BME280;34644;47.964;7.982;2023-10-13T04:27:46;96642.03;;;20.49;50.12
48386;BME280;34644;47.964;7.982;2023-10-13T04:35:15;96622.28;;;20.31;48.52
48386;BME280;34644;47.964;7.982;2023-10-13T04:42:15;96630.88;;;19.81;46.39
48386;BME280;34644;47.964;7.982;2023-10-13T04:49:38;96622.88;;;19.43;46.84
48386;BME280;34644;47.964;7.982;2023-10-13T04:56:39;96621.16;;;19.33;46.80
48386;BME280;34644;47.964;7.982;2023-10-13T05:03:58;96619.94;;;19.45;46.62
48386;BME280;34644;47.964;7.982;2023-10-13T05:11:17;96614.53;;;19.31;46.18
48386;BME280;34644;47.964;7.982;2023-10-13T05:18:36;96609.13;;;19.17;46.40
48386;BME280;34644;47.964;7.982;2023-10-13T05:25:55;96612.31;;;19.71;46.65
48386;BME280;34644;47.964;7.982;2023-10-13T05:33:14;96610.41;;;19.77;47.68
48386;BME280;34644;47.964;7.982;2023-10-13T05:40:33;96619.22;;;19.77;46.64
48386;BME280;34644;47.964;7.982;2023-10-13T05:47:52;96619.22;;;19.77;46.41
48386;BME280;34644;47.964;7.982;2023-10-13T05:55:11;96613.56;;;19.79;46.08
48386;BME280;34644;47.964;7.982;2023-10-13T06:02:30;96617.31;;;19.78;46.20
48386;BME280;34644;47.964;7.982;2023-10-13T06:09:49;96621.59;;;19.79;46.12
48386;BME280;34644;47.964;7.982;2023-10-13T06:17:08;96617.03;;;19.79;45.56
48386;BME280;34644;47.964;7.982;2023-10-13T06:24:26;96622.53;;;19.69;45.19
48386;BME280;34644;47.964;7.982;2023-10-13T06:31:45;96617.09;;;19.74;45.26
48386;BME280;34644;47.964;7.982;2023-10-13T06:38:47;96621.34;;;19.75;45.02
48386;BME280;34644;47.964;7.982;2023-10-13T06:45:55;96615.75;;;19.77;44.90
48386;BME280;34644;47.964;7.982;2023-10-13T06:53:00;96623.47;;;19.78;44.55
48386;BME280;34644;47.964;7.982;2023-10-13T07:00:02;96620.50;;;19.80;44.54
48386;BME280;34644;47.964;7.982;2023-10-13T07:07:07;96624.16;;;19.84;44.20
48386;BME280;34644;47.964;7.982;2023-10-13T07:14:10;96624.91;;;19.90;44.54
48386;BME280;34644;47.964;7.982;2023-10-13T07:21:16;96624.59;;;19.91;44.78
48386;BME280;34644;47.964;7.982;2023-10-13T07:28:16;96618.38;;;19.96;45.07
48386;BME280;34644;47.964;7.982;2023-10-13T07:35:17;96624.72;;;20.00;44.91
48386;BME280;34644;47.964;7.982;2023-10-13T07:42:20;96631.38;;;20.02;45.35
48386;BME280;34644;47.964;7.982;2023-10-13T07:49:21;96629.97;;;20.05;45.51
48386;BME280;34644;47.964;7.982;2023-10-13T07:56:21;96630.25;;;20.03;45.37
48386;BME280;34644;47.964;7.982;2023-10-13T08:03:22;96626.13;;;20.11;45.23
48386;BME280;34644;47.964;7.982;2023-10-13T08:10:44;96626.53;;;20.18;45.60
48386;BME280;34644;47.964;7.982;2023-10-13T08:17:45;96614.13;;;20.22;46.12
48386;BME280;34644;47.964;7.982;2023-10-13T08:24:46;96615.34;;;20.30;45.93
48386;BME280;34644;47.964;7.982;2023-10-13T08:31:50;96612.06;;;20.33;46.02
48386;BME280;34644;47.964;7.982;2023-10-13T08:39:09;96610.22;;;20.34;46.41
48386;BME280;34644;47.964;7.982;2023-10-13T08:46:30;96605.16;;;20.32;46.51
48386;BME280;34644;47.964;7.982;2023-10-13T08:53:38;96615.03;;;20.32;46.58
48386;BME280;34644;47.964;7.982;2023-10-13T09:00:47;96608.50;;;20.38;46.95
48386;BME280;34644;47.964;7.982;2023-10-13T09:07:59;96598.31;;;20.40;47.10
48386;BME280;34644;47.964;7.982;2023-10-13T09:15:09;96584.34;;;20.43;47.41
48386;BME280;34644;47.964;7.982;2023-10-13T09:29:29;96579.00;;;20.43;45.04
48386;BME280;34644;47.964;7.982;2023-10-13T09:36:31;96576.00;;;20.45;44.82
48386;BME280;34644;47.964;7.982;2023-10-13T09:43:34;96566.59;;;20.47;43.99
48386;BME280;34644;47.964;7.982;2023-10-13T09:50:37;96561.72;;;20.49;44.02
48386;BME280;34644;47.964;7.982;2023-10-13T09:57:45;96558.75;;;20.51;43.61
48386;BME280;34644;47.964;7.982;2023-10-13T10:04:52;96556.28;;;20.54;44.64
48386;BME280;34644;47.964;7.982;2023-10-13T10:19:08;96538.50;;;20.58;45.17
48386;BME280;34644;47.964;7.982;2023-10-13T10:26:12;96534.75;;;20.59;45.49
48386;BME280;34644;47.964;7.982;2023-10-13T10:33:20;96526.13;;;20.63;45.16
48386;BME280;34644;47.964;7.982;2023-10-13T10:40:29;96519.16;;;20.61;44.70
48386;BME280;34644;47.964;7.982;2023-10-13T10:47:47;96514.03;;;20.65;44.49
48386;BME280;34644;47.964;7.982;2023-10-13T10:54:57;96504.91;;;20.66;44.48
48386;BME280;34644;47.964;7.982;2023-10-13T11:01:58;96502.81;;;20.77;43.47
48386;BME280;34644;47.964;7.982;2023-10-13T11:09:03;96484.06;;;20.77;43.69
48386;BME280;34644;47.964;7.982;2023-10-13T11:16:04;96477.94;;;20.76;45.32
48386;BME280;34644;47.964;7.982;2023-10-13T11:23:14;96476.03;;;20.77;45.31
48386;BME280;34644;47.964;7.982;2023-10-13T11:30:16;96462.63;;;20.77;45.73
48386;BME280;34644;47.964;7.982;2023-10-13T11:37:20;96456.19;;;20.78;46.02
48386;BME280;34644;47.964;7.982;2023-10-13T11:44:37;96440.91;;;20.78;46.27
48386;BME280;34644;47.964;7.982;2023-10-13T11:51:44;96441.41;;;20.81;46.15
48386;BME280;34644;47.964;7.982;2023-10-13T11:58:48;96413.53;;;20.82;46.05
48386;BME280;34644;47.964;7.982;2023-10-13T12:05:48;96415.91;;;20.83;46.05
48386;BME280;34644;47.964;7.982;2023-10-13T12:13:00;96396.38;;;20.83;46.17
48386;BME280;34644;47.964;7.982;2023-10-13T12:20:08;96391.81;;;20.83;45.80
48386;BME280;34644;47.964;7.982;2023-10-13T12:27:17;96386.91;;;20.85;45.51
48386;BME280;34644;47.964;7.982;2023-10-13T12:34:23;96360.13;;;20.85;45.47
48386;BME280;34644;47.964;7.982;2023-10-13T12:41:45;96343.94;;;20.90;42.65
48386;BME280;34644;47.964;7.982;2023-10-13T12:49:04;96341.00;;;21.01;41.02
48386;BME280;34644;47.964;7.982;2023-10-13T12:56:15;96342.91;;;21.00;40.84
48386;BME280;34644;47.964;7.982;2023-10-13T13:03:25;96331.88;;;21.02;41.16
48386;BME280;34644;47.964;7.982;2023-10-13T13:10:29;96315.94;;;20.96;42.94
48386;BME280;34644;47.964;7.982;2023-10-13T13:17:35;96314.06;;;20.97;43.80
48386;BME280;34644;47.964;7.982;2023-10-13T13:24:36;96314.06;;;20.97;43.68
48386;BME280;34644;47.964;7.982;2023-10-13T13:31:43;96298.75;;;20.98;43.96
48386;BME280;34644;47.964;7.982;2023-10-13T13:38:45;96290.72;;;20.98;44.35
48386;BME280;34644;47.964;7.982;2023-10-13T13:45:51;96282.69;;;20.98;44.46
48386;BME280;34644;47.964;7.982;2023-10-13T13:52:57;96265.53;;;20.99;44.39
48386;BME280;34644;47.964;7.982;2023-10-13T13:59:57;96254.00;;;20.98;44.41
48386;BME280;34644;47.964;7.982;2023-10-13T14:07:00;96247.25;;;21.01;44.49
48386;BME280;34644;47.964;7.982;2023-10-13T14:14:10;96237.63;;;21.00;44.83
48386;BME280;34644;47.964;7.982;2023-10-13T14:21:15;96236.53;;;21.01;44.76
48386;BME280;34644;47.964;7.982;2023-10-13T14:28:20;96233.06;;;21.00;44.62
48386;BME280;34644;47.964;7.982;2023-10-13T14:35:21;96227.41;;;21.02;44.54
48386;BME280;34644;47.964;7.982;2023-10-13T14:42:21;96221.25;;;21.01;44.55
48386;BME280;34644;47.964;7.982;2023-10-13T14:49:23;96214.78;;;21.02;44.90
48386;BME280;34644;47.964;7.982;2023-10-13T14:56:23;96211.03;;;21.03;45.16
48386;BME280;34644;47.964;7.982;2023-10-13T15:03:25;96207.22;;;21.04;45.07
48386;BME280;34644;47.964;7.982;2023-10-13T15:10:25;96208.19;;;21.08;43.96
48386;BME280;34644;47.964;7.982;2023-10-13T15:17:26;96205.69;;;21.12;42.48
48386;BME280;34644;47.964;7.982;2023-10-13T15:24:28;96200.78;;;21.14;41.65
48386;BME280;34644;47.964;7.982;2023-10-13T15:31:28;96196.41;;;21.18;42.77
48386;BME280;34644;47.964;7.982;2023-10-13T15:38:35;96188.50;;;21.22;42.08
48386;BME280;34644;47.964;7.982;2023-10-13T15:45:37;96186.03;;;21.25;43.19
48386;BME280;34644;47.964;7.982;2023-10-13T15:52:42;96179.84;;;21.25;42.54
48386;BME280;34644;47.964;7.982;2023-10-13T15:59:49;96162.03;;;21.20;43.68
48386;BME280;34644;47.964;7.982;2023-10-13T16:06:49;96167.38;;;21.20;44.21
48386;BME280;34644;47.964;7.982;2023-10-13T16:13:52;96160.47;;;21.19;44.31
48386;BME280;34644;47.964;7.982;2023-10-13T16:20:52;96158.88;;;21.18;44.61
48386;BME280;34644;47.964;7.982;2023-10-13T16:27:54;96165.34;;;21.17;44.92
48386;BME280;34644;47.964;7.982;2023-10-13T16:34:55;96168.81;;;21.18;45.12
48386;BME280;34644;47.964;7.982;2023-10-13T16:41:55;96176.88;;;21.18;45.21
48386;BME280;34644;47.964;7.982;2023-10-13T16:48:55;96184.09;;;21.17;45.52
48386;BME280;34644;47.964;7.982;2023-10-13T16:55:57;96187.59;;;21.18;45.47
48386;BME280;34644;47.964;7.982;2023-10-13T17:03:02;96196.41;;;21.18;45.82
48386;BME280;34644;47.964;7.982;2023-10-13T17:10:06;96195.63;;;21.18;45.64
48386;BME280;34644;47.964;7.982;2023-10-13T17:17:07;96187.59;;;21.18;45.93
48386;BME280;34644;47.964;7.982;2023-10-13T17:24:08;96178.72;;;21.17;45.98
48386;BME280;34644;47.964;7.982;2023-10-13T17:31:09;96180.31;;;21.18;45.91
48386;BME280;34644;47.964;7.982;2023-10-13T17:38:09;96185.69;;;21.18;45.81
48386;BME280;34644;47.964;7.982;2023-10-13T17:45:10;96197.97;;;21.19;45.88
48386;BME280;34644;47.964;7.982;2023-10-13T17:52:11;96188.34;;;21.18;45.85
48386;BME280;34644;47.964;7.982;2023-10-13T17:59:11;96194.81;;;21.17;46.00
48386;BME280;34644;47.964;7.982;2023-10-13T18:06:13;96188.34;;;21.18;45.75
48386;BME280;34644;47.964;7.982;2023-10-13T18:13:16;96196.41;;;21.18;46.09
48386;BME280;34644;47.964;7.982;2023-10-13T18:20:16;96200.16;;;21.17;45.57
48386;BME280;34644;47.964;7.982;2023-10-13T18:27:20;96188.66;;;21.17;45.63
48386;BME280;34644;47.964;7.982;2023-10-13T18:34:20;96174.97;;;21.18;45.24
48386;BME280;34644;47.964;7.982;2023-10-13T18:41:22;96172.59;;;21.17;44.81
48386;BME280;34644;47.964;7.982;2023-10-13T18:48:23;96186.31;;;21.15;44.63
48386;BME280;34644;47.964;7.982;2023-10-13T18:55:26;96178.25;;;21.15;45.19
48386;BME280;34644;47.964;7.982;2023-10-13T19:02:26;96176.38;;;21.15;45.57
48386;BME280;34644;47.964;7.982;2023-10-13T19:09:26;96181.09;;;21.19;44.44
48386;BME280;34644;47.964;7.982;2023-10-13T19:16:28;96182.53;;;21.16;44.96
48386;BME280;34644;47.964;7.982;2023-10-13T19:23:30;96188.97;;;21.15;44.67
48386;BME280;34644;47.964;7.982;2023-10-13T19:30:30;96185.22;;;21.16;45.37
48386;BME280;34644;47.964;7.982;2023-10-13T19:37:33;96180.94;;;21.15;45.17
48386;BME280;34644;47.964;7.982;2023-10-13T19:44:39;96176.38;;;21.15;45.44
48386;BME280;34644;47.964;7.982;2023-10-13T19:51:43;96172.13;;;21.14;45.72
48386;BME280;34644;47.964;7.982;2023-10-13T19:58:43;96175.59;;;21.15;45.62
48386;BME280;34644;47.964;7.982;2023-10-13T20:05:44;96169.44;;;21.14;45.65
48386;BME280;34644;47.964;7.982;2023-10-13T20:12:44;96171.50;;;21.18;44.12
48386;BME280;34644;47.964;7.982;2023-10-13T20:19:45;96168.81;;;21.18;45.08
48386;BME280;34644;47.964;7.982;2023-10-13T20:26:47;96160.59;;;21.14;45.30
48386;BME280;34644;47.964;7.982;2023-10-13T20:33:48;96167.53;;;21.15;45.88
48386;BME280;34644;47.964;7.982;2023-10-13T20:40:52;96166.44;;;21.16;45.65
48386;BME280;34644;47.964;7.982;2023-10-13T20:47:53;96170.22;;;21.15;45.93
48386;BME280;34644;47.964;7.982;2023-10-13T20:54:53;96168.63;;;21.14;46.74
48386;BME280;34644;47.964;7.982;2023-10-13T21:01:54;96159.50;;;21.15;46.68
48386;BME280;34644;47.964;7.982;2023-10-13T21:08:55;96163.28;;;21.14;46.36
48386;BME280;34644;47.964;7.982;2023-10-13T21:15:59;96162.19;;;21.15;46.39
48386;BME280;34644;47.964;7.982;2023-10-13T21:23:00;96160.59;;;21.14;46.14
48386;BME280;34644;47.964;7.982;2023-10-13T21:30:01;96161.72;;;21.13;46.02
48386;BME280;34644;47.964;7.982;2023-10-13T21:37:01;96167.84;;;21.13;46.30
48386;BME280;34644;47.964;7.982;2023-10-13T21:44:03;96174.00;;;21.14;46.01
48386;BME280;34644;47.964;7.982;2023-10-13T21:51:09;96159.81;;;21.13;46.05
48386;BME280;34644;47.964;7.982;2023-10-13T21:58:10;96179.34;;;21.14;46.22
48386;BME280;34644;47.964;7.982;2023-10-13T22:05:13;96162.50;;;21.13;46.44
48386;BME280;34644;47.964;7.982;2023-10-13T22:12:13;96169.44;;;21.14;46.13
48386;BME280;34644;47.964;7.982;2023-10-13T22:19:15;96169.75;;;21.13;45.12
48386;BME280;34644;47.964;7.982;2023-10-13T22:26:19;96184.72;;;21.14;46.01
48386;BME280;34644;47.964;7.982;2023-10-13T22:33:19;96197.31;;;21.13;45.91
48386;BME280;34644;47.964;7.982;2023-10-13T22:40:20;96192.75;;;21.14;45.92
48386;BME280;34644;47.964;7.982;2023-10-13T22:47:20;96204.28;;;21.14;45.97
48386;BME280;34644;47.964;7.982;2023-10-13T22:54:21;96179.34;;;21.14;46.35
48386;BME280;34644;47.964;7.982;2023-10-13T23:01:21;96174.81;;;21.14;46.73
48386;BME280;34644;47.964;7.982;2023-10-13T23:08:23;96170.22;;;21.15;46.77
48386;BME280;34644;47.964;7.982;2023-10-13T23:15:34;96186.31;;;21.15;47.19
48386;BME280;34644;47.964;7.982;2023-10-13T23:22:35;96181.72;;;21.15;47.44
48386;BME280;34644;47.964;7.982;2023-10-13T23:29:35;96192.44;;;21.15;47.16
48386;BME280;34644;47.964;7.982;2023-10-13T23:36:36;96207.44;;;21.17;47.28
48386;BME280;34644;47.964;7.982;2023-10-13T23:43:38;96212.00;;;21.16;47.09
48386;BME280;34644;47.964;7.982;2023-10-13T23:50:45;96213.09;;;21.15;47.23
48386;BME280;34644;47.964;7.982;2023-10-13T23:57:58;96216.25;;;21.17;47.45
